createdAt,value
2023-02-27T00:01:15.510Z,2.50
2023-02-27T00:03:42.734Z,3.60
2023-02-27T00:06:09.898Z,3.10
2023-02-27T00:08:37.204Z,2.90
2023-02-27T00:11:04.446Z,2.37
2023-02-27T00:13:31.619Z,2.43
2023-02-27T00:15:58.823Z,2.70
2023-02-27T00:18:26.058Z,2.60
2023-02-27T00:20:53.368Z,1.97
2023-02-27T00:23:20.696Z,2.40
2023-02-27T00:25:47.916Z,2.23
2023-02-27T00:28:15.112Z,2.37
2023-02-27T00:30:42.450Z,2.70
2023-02-27T00:33:09.634Z,2.57
2023-02-27T00:35:36.844Z,2.70
2023-02-27T00:38:04.274Z,2.33
2023-02-27T00:40:31.745Z,2.47
2023-02-27T00:42:58.966Z,2.63
2023-02-27T00:45:26.110Z,2.47
2023-02-27T00:47:53.245Z,2.50
2023-02-27T00:50:20.466Z,3.07
2023-02-27T00:52:47.651Z,2.40
2023-02-27T00:55:14.783Z,2.77
2023-02-27T00:57:41.995Z,2.37
2023-02-27T01:00:10.122Z,1.90
2023-02-27T01:02:37.400Z,2.80
2023-02-27T01:05:04.603Z,2.50
2023-02-27T01:07:31.868Z,2.30
2023-02-27T01:09:59.035Z,2.33
2023-02-27T01:12:26.293Z,2.77
2023-02-27T01:14:53.435Z,2.27
2023-02-27T01:17:20.570Z,2.53
2023-02-27T01:19:47.703Z,2.23
2023-02-27T01:22:14.812Z,2.53
2023-02-27T01:24:42.038Z,2.70
2023-02-27T01:27:09.226Z,2.63
2023-02-27T01:29:36.457Z,2.60
2023-02-27T01:32:03.878Z,2.70
2023-02-27T01:34:33.330Z,2.57
2023-02-27T01:37:01.350Z,2.20
2023-02-27T01:39:29.346Z,2.40
2023-02-27T01:41:56.484Z,3.10
2023-02-27T01:44:23.680Z,2.67
2023-02-27T01:46:50.892Z,2.33
2023-02-27T01:49:24.327Z,2.50
2023-02-27T01:52:11.769Z,2.70
2023-02-27T01:54:41.798Z,2.10
2023-02-27T01:57:09.796Z,2.70
2023-02-27T01:59:39.768Z,2.90
2023-02-27T02:02:11.432Z,2.60
2023-02-27T02:04:40.026Z,3.03
2023-02-27T02:07:09.367Z,2.60
2023-02-27T02:09:38.407Z,2.47
2023-02-27T02:12:05.804Z,2.53
2023-02-27T02:14:33.090Z,2.83
2023-02-27T02:17:09.059Z,2.10
2023-02-27T02:19:36.185Z,2.27
2023-02-27T02:22:18.422Z,2.60
2023-02-27T02:25:00.348Z,2.60
2023-02-27T02:27:36.348Z,2.47
2023-02-27T02:30:06.265Z,3.20
2023-02-27T02:33:00.660Z,2.50
2023-02-27T02:35:39.466Z,2.70
2023-02-27T02:38:06.632Z,2.70
2023-02-27T02:40:44.527Z,2.47
2023-02-27T02:43:11.677Z,2.67
2023-02-27T02:45:57.605Z,2.27
2023-02-27T02:48:24.720Z,2.33
2023-02-27T02:51:12.087Z,2.30
2023-02-27T02:53:39.250Z,2.60
2023-02-27T02:56:27.780Z,2.50
2023-02-27T02:59:01.215Z,2.80
2023-02-27T03:01:34.214Z,2.80
2023-02-27T03:04:07.360Z,2.87
2023-02-27T03:06:40.653Z,2.80
2023-02-27T03:09:24.187Z,3.30
2023-02-27T03:11:53.116Z,2.40
2023-02-27T03:14:20.248Z,3.17
2023-02-27T03:16:50.038Z,2.80
2023-02-27T03:19:19.705Z,2.80
2023-02-27T03:22:07.570Z,2.83
2023-02-27T03:24:39.811Z,2.63
2023-02-27T03:27:07.875Z,2.70
2023-02-27T03:29:40.945Z,2.90
2023-02-27T03:32:11.615Z,2.30
2023-02-27T03:34:40.040Z,2.43
2023-02-27T03:37:19.735Z,2.60
2023-02-27T03:39:52.391Z,2.67
2023-02-27T03:42:24.915Z,3.10
2023-02-27T03:45:05.933Z,2.53
2023-02-27T03:47:33.866Z,3.20
2023-02-27T03:50:01.123Z,3.03
2023-02-27T03:52:29.812Z,2.60
2023-02-27T03:55:08.249Z,3.10
2023-02-27T03:57:35.726Z,3.10
2023-02-27T04:00:05.413Z,2.60
2023-02-27T04:02:33.118Z,3.50
2023-02-27T04:05:00.291Z,2.80
2023-02-27T04:07:35.322Z,2.83
2023-02-27T04:10:14.694Z,3.03
2023-02-27T04:12:53.731Z,2.93
2023-02-27T04:15:43.907Z,3.07
2023-02-27T04:18:35.820Z,3.70
2023-02-27T04:21:14.220Z,3.17
2023-02-27T04:23:41.487Z,3.00
2023-02-27T04:26:21.559Z,3.17
2023-02-27T04:28:53.501Z,3.07
2023-02-27T04:31:29.690Z,2.67
2023-02-27T04:33:57.216Z,2.97
2023-02-27T04:36:24.440Z,3.13
2023-02-27T04:39:04.339Z,4.10
2023-02-27T04:41:34.678Z,3.13
2023-02-27T04:44:03.035Z,3.60
2023-02-27T04:46:31.248Z,3.33
2023-02-27T04:49:24.570Z,3.53
2023-02-27T04:52:02.230Z,3.53
2023-02-27T04:54:32.820Z,3.47
2023-02-27T04:57:02.471Z,3.60
2023-02-27T04:59:35.176Z,2.97
2023-02-27T05:02:04.135Z,3.30
2023-02-27T05:04:33.703Z,3.03
2023-02-27T05:07:02.210Z,3.50
2023-02-27T05:09:36.107Z,3.20
2023-02-27T05:12:05.842Z,3.43
2023-02-27T05:14:35.648Z,3.00
2023-02-27T05:17:08.710Z,3.50
2023-02-27T05:19:38.270Z,3.93
2023-02-27T05:22:29.158Z,3.70
2023-02-27T05:25:11.734Z,3.57
2023-02-27T05:27:51.036Z,3.50
2023-02-27T05:30:29.779Z,3.67
2023-02-27T05:32:56.925Z,3.13
2023-02-27T05:35:46.033Z,3.90
2023-02-27T05:38:26.658Z,3.73
2023-02-27T05:40:57.869Z,3.83
2023-02-27T05:43:37.442Z,3.40
2023-02-27T05:46:12.152Z,3.30
2023-02-27T05:48:42.218Z,3.90
2023-02-27T05:51:10.673Z,3.53
2023-02-27T05:53:41.329Z,4.37
2023-02-27T05:56:09.319Z,4.67
2023-02-27T05:58:42.469Z,3.57
2023-02-27T06:01:10.286Z,3.77
2023-02-27T06:03:38.932Z,4.03
2023-02-27T06:06:08.561Z,3.80
2023-02-27T06:08:35.928Z,3.70
2023-02-27T06:11:03.090Z,4.47
2023-02-27T06:13:30.306Z,5.03
2023-02-27T06:15:57.461Z,4.53
2023-02-27T06:18:24.715Z,3.73
2023-02-27T06:20:52.022Z,4.90
2023-02-27T06:23:21.416Z,4.33
2023-02-27T06:25:49.279Z,4.60
2023-02-27T06:28:16.418Z,4.17
2023-02-27T06:30:45.330Z,4.07
2023-02-27T06:33:13.520Z,4.30
2023-02-27T06:35:40.768Z,4.80
2023-02-27T06:38:08.059Z,4.67
2023-02-27T06:40:35.171Z,5.43
2023-02-27T06:43:02.304Z,5.00
2023-02-27T06:45:29.529Z,4.03
2023-02-27T06:47:56.695Z,4.80
2023-02-27T06:50:23.830Z,4.50
2023-02-27T06:52:51.012Z,5.03
2023-02-27T06:55:20.791Z,4.57
2023-02-27T06:57:48.133Z,4.70
2023-02-27T07:00:15.832Z,5.03
2023-02-27T07:02:43.955Z,5.03
2023-02-27T07:05:14.637Z,7.20
2023-02-27T07:07:41.780Z,5.00
2023-02-27T07:10:11.831Z,5.00
2023-02-27T07:12:39.436Z,4.40
2023-02-27T07:15:07.054Z,5.37
2023-02-27T07:17:34.229Z,5.20
2023-02-27T07:20:01.548Z,5.43
2023-02-27T07:22:28.745Z,5.13
2023-02-27T07:24:55.943Z,5.53
2023-02-27T07:27:23.103Z,5.90
2023-02-27T07:29:50.269Z,5.43
2023-02-27T07:32:17.481Z,5.47
2023-02-27T07:34:44.630Z,5.07
2023-02-27T07:37:11.847Z,5.97
2023-02-27T07:39:39.379Z,5.40
2023-02-27T07:42:06.626Z,5.63
2023-02-27T07:44:33.836Z,5.90
2023-02-27T07:47:01.086Z,5.00
2023-02-27T07:49:28.255Z,6.40
2023-02-27T07:51:55.544Z,6.40
2023-02-27T07:54:22.809Z,5.73
2023-02-27T07:56:50.010Z,5.20
2023-02-27T07:59:17.215Z,5.53
2023-02-27T08:01:44.345Z,5.93
2023-02-27T08:04:13.835Z,5.50
2023-02-27T08:06:41.124Z,6.70
2023-02-27T08:09:08.474Z,6.73
2023-02-27T08:11:35.627Z,6.33
2023-02-27T08:14:03.325Z,6.43
2023-02-27T08:16:31.959Z,6.10
2023-02-27T08:18:59.624Z,6.47
2023-02-27T08:21:27.504Z,6.20
2023-02-27T08:23:54.935Z,6.13
2023-02-27T08:26:22.458Z,7.23
2023-02-27T08:28:49.762Z,6.63
2023-02-27T08:31:16.950Z,6.67
2023-02-27T08:33:44.214Z,6.90
2023-02-27T08:36:11.489Z,7.43
2023-02-27T08:38:38.687Z,5.73
2023-02-27T08:41:05.971Z,6.00
2023-02-27T08:43:33.138Z,6.33
2023-02-27T08:46:00.347Z,6.50
2023-02-27T08:48:27.633Z,6.70
2023-02-27T08:50:57.420Z,6.63
2023-02-27T08:53:24.995Z,5.90
2023-02-27T08:55:53.340Z,6.27
2023-02-27T08:58:20.545Z,6.53
2023-02-27T09:00:47.986Z,6.33
2023-02-27T09:03:15.198Z,6.97
2023-02-27T09:05:42.874Z,5.37
2023-02-27T09:08:10.367Z,5.53
2023-02-27T09:10:37.569Z,5.47
2023-02-27T09:13:04.835Z,5.73
2023-02-27T09:15:34.452Z,5.37
2023-02-27T09:18:03.277Z,4.33
2023-02-27T09:20:31.703Z,4.67
2023-02-27T09:22:59.297Z,4.40
2023-02-27T09:25:27.016Z,4.37
2023-02-27T09:27:54.217Z,4.30
2023-02-27T09:30:21.447Z,5.50
2023-02-27T09:32:49.111Z,3.90
2023-02-27T09:35:16.768Z,3.07
2023-02-27T09:37:44.412Z,4.20
2023-02-27T09:40:20.900Z,6.20
2023-02-27T09:42:48.993Z,3.70
2023-02-27T09:45:23.573Z,3.47
2023-02-27T09:47:53.718Z,2.80
2023-02-27T09:50:34.769Z,2.63
2023-02-27T09:53:02.356Z,3.27
2023-02-27T09:55:31.854Z,2.53
2023-02-27T09:58:04.436Z,2.40
2023-02-27T10:00:31.640Z,2.93
2023-02-27T10:03:17.501Z,2.37
2023-02-27T10:05:51.796Z,4.10
2023-02-27T10:08:22.038Z,2.40
2023-02-27T10:10:49.151Z,3.03
2023-02-27T10:13:16.317Z,2.30
2023-02-27T10:15:53.294Z,2.83
2023-02-27T10:18:30.926Z,2.50
2023-02-27T10:21:06.742Z,2.40
2023-02-27T10:23:33.913Z,2.00
2023-02-27T10:26:01.708Z,1.20
2023-02-27T10:28:29.715Z,2.03
2023-02-27T10:30:59.469Z,1.73
2023-02-27T10:33:28.964Z,1.60
2023-02-27T10:35:55.930Z,1.57
2023-02-27T10:38:32.227Z,1.40
2023-02-27T10:41:00.297Z,1.70
2023-02-27T10:43:27.223Z,1.70
2023-02-27T10:45:54.515Z,1.60
2023-02-27T10:48:23.058Z,2.33
2023-02-27T10:50:54.000Z,2.10
2023-02-27T10:53:27.978Z,2.47
2023-02-27T10:56:03.350Z,1.70
2023-02-27T10:58:34.631Z,1.70
2023-02-27T11:01:07.165Z,2.00
2023-02-27T11:03:39.318Z,1.50
2023-02-27T11:06:10.437Z,1.70
2023-02-27T11:08:37.666Z,1.73
2023-02-27T11:11:07.192Z,2.10
2023-02-27T11:13:36.770Z,1.87
2023-02-27T11:16:13.098Z,1.60
2023-02-27T11:18:41.825Z,1.23
2023-02-27T11:21:15.174Z,2.07
2023-02-27T11:23:56.716Z,1.60
2023-02-27T11:26:33.188Z,2.20
2023-02-27T11:29:18.237Z,2.58
2023-02-27T11:32:11.854Z,1.42
2023-02-27T11:34:52.273Z,2.53
2023-02-27T11:37:34.656Z,1.42
2023-02-27T11:40:15.440Z,1.50
2023-02-27T11:42:45.273Z,1.50
2023-02-27T11:45:18.503Z,1.40
2023-02-27T11:48:13.371Z,2.00
2023-02-27T11:50:48.740Z,1.75
2023-02-27T11:53:33.175Z,1.77
2023-02-27T11:56:01.954Z,1.55
2023-02-27T11:58:31.214Z,1.60
2023-02-27T12:01:02.123Z,1.93
2023-02-27T12:03:34.603Z,1.83
2023-02-27T12:06:04.891Z,1.20
2023-02-27T12:08:37.192Z,1.52
2023-02-27T12:11:14.643Z,1.60
2023-02-27T12:13:43.762Z,1.45
2023-02-27T12:16:31.649Z,1.77
2023-02-27T12:19:11.521Z,1.80
2023-02-27T12:21:40.974Z,1.88
2023-02-27T12:24:10.178Z,1.48
2023-02-27T12:26:41.571Z,2.15
2023-02-27T12:29:27.595Z,1.70
2023-02-27T12:31:57.086Z,2.00
2023-02-27T12:34:26.527Z,2.42
2023-02-27T12:36:54.369Z,1.77
2023-02-27T12:39:23.157Z,1.40
2023-02-27T12:42:04.180Z,1.70
2023-02-27T12:44:32.226Z,1.80
2023-02-27T12:47:09.016Z,1.42
2023-02-27T12:49:45.573Z,1.73
2023-02-27T12:52:16.646Z,1.55
2023-02-27T12:54:53.133Z,2.10
2023-02-27T12:57:23.391Z,2.08
2023-02-27T12:59:59.234Z,2.03
2023-02-27T13:02:34.057Z,1.52
2023-02-27T13:05:13.366Z,1.73
2023-02-27T13:08:14.487Z,1.75
2023-02-27T13:11:11.379Z,1.45
2023-02-27T13:13:59.339Z,1.60
2023-02-27T13:16:55.679Z,1.65
2023-02-27T13:19:53.001Z,1.77
2023-02-27T13:22:54.988Z,2.40
2023-02-27T13:25:23.824Z,1.92
2023-02-27T13:28:15.253Z,1.60
2023-02-27T13:30:44.776Z,2.40
2023-02-27T13:33:17.522Z,3.08
2023-02-27T13:35:59.362Z,1.50
2023-02-27T13:38:46.077Z,1.27
2023-02-27T13:41:24.516Z,1.48
2023-02-27T13:43:53.124Z,1.60
2023-02-27T13:46:23.624Z,1.45
2023-02-27T13:49:06.162Z,1.83
2023-02-27T13:51:45.785Z,1.63
2023-02-27T13:54:20.419Z,2.15
2023-02-27T13:56:47.553Z,1.50
2023-02-27T13:59:20.269Z,2.38
2023-02-27T14:02:02.756Z,2.10
2023-02-27T14:04:31.696Z,1.92
2023-02-27T14:07:00.143Z,1.70
2023-02-27T14:09:33.267Z,1.80
2023-02-27T14:12:02.468Z,2.03
2023-02-27T14:14:40.041Z,2.25
2023-02-27T14:17:08.134Z,3.67
2023-02-27T14:19:35.374Z,1.50
2023-02-27T14:22:24.518Z,1.38
2023-02-27T14:25:03.695Z,1.63
2023-02-27T14:27:38.475Z,2.15
2023-02-27T14:30:10.223Z,1.63
2023-02-27T14:32:38.502Z,1.70
2023-02-27T14:35:06.061Z,1.60
2023-02-27T14:37:33.152Z,2.72
2023-02-27T14:40:03.272Z,1.60
2023-02-27T14:42:36.280Z,2.22
2023-02-27T14:45:04.601Z,1.58
2023-02-27T14:47:32.599Z,1.60
2023-02-27T14:50:00.236Z,1.98
2023-02-27T14:52:29.756Z,2.17
2023-02-27T14:55:15.657Z,2.08
2023-02-27T14:57:53.664Z,7.35
2023-02-27T15:00:34.764Z,7.55
2023-02-27T15:03:10.866Z,2.92
2023-02-27T15:05:38.897Z,4.07
2023-02-27T15:08:06.261Z,2.47
2023-02-27T15:10:33.653Z,2.00
2023-02-27T15:13:02.104Z,2.40
2023-02-27T15:15:29.838Z,3.40
2023-02-27T15:17:57.004Z,2.95
2023-02-27T15:20:24.482Z,2.55
2023-02-27T15:22:52.091Z,2.63
2023-02-27T15:25:37.274Z,4.30
2023-02-27T15:28:06.174Z,2.40
2023-02-27T15:30:33.829Z,2.80
2023-02-27T15:33:02.931Z,2.43
2023-02-27T15:35:36.737Z,2.73
2023-02-27T15:38:04.632Z,3.33
2023-02-27T15:40:33.969Z,7.70
2023-02-27T15:43:02.087Z,3.07
2023-02-27T15:45:33.913Z,3.30
2023-02-27T15:48:01.241Z,2.73
2023-02-27T15:50:32.212Z,2.57
2023-02-27T15:53:00.873Z,2.47
2023-02-27T15:55:33.234Z,2.07
2023-02-27T15:58:03.486Z,2.90
2023-02-27T16:00:31.626Z,2.80
2023-02-27T16:02:59.579Z,2.80
2023-02-27T16:05:38.142Z,2.33
2023-02-27T16:08:07.031Z,2.40
2023-02-27T16:10:44.102Z,2.97
2023-02-27T16:13:23.308Z,2.87
2023-02-27T16:16:07.018Z,2.80
2023-02-27T16:18:50.421Z,3.37
2023-02-27T16:21:19.172Z,5.37
2023-02-27T16:23:46.886Z,3.10
2023-02-27T16:26:32.324Z,3.10
2023-02-27T16:29:00.737Z,2.43
2023-02-27T16:31:41.124Z,2.40
2023-02-27T16:34:14.340Z,2.80
2023-02-27T16:36:42.316Z,4.43
2023-02-27T16:39:15.472Z,5.67
2023-02-27T16:41:43.326Z,2.43
2023-02-27T16:44:10.492Z,2.20
2023-02-27T16:46:37.811Z,2.13
2023-02-27T16:49:19.161Z,1.60
2023-02-27T16:51:46.822Z,1.90
2023-02-27T16:54:15.498Z,2.03
2023-02-27T16:56:44.575Z,2.10
2023-02-27T16:59:28.718Z,1.57
2023-02-27T17:01:56.772Z,2.23
2023-02-27T17:04:26.089Z,1.63
2023-02-27T17:06:53.908Z,1.70
2023-02-27T17:09:21.120Z,1.80
2023-02-27T17:11:49.101Z,1.70
2023-02-27T17:14:17.018Z,2.00
2023-02-27T17:16:44.231Z,2.20
2023-02-27T17:19:11.414Z,1.97
2023-02-27T17:21:38.591Z,1.90
2023-02-27T17:24:06.269Z,2.00
2023-02-27T17:26:34.226Z,2.00
2023-02-27T17:29:02.645Z,1.87
2023-02-27T17:31:31.151Z,3.50
2023-02-27T17:33:58.384Z,2.60
2023-02-27T17:36:25.714Z,2.33
2023-02-27T17:38:57.486Z,3.20
2023-02-27T17:41:25.111Z,2.53
2023-02-27T17:43:55.938Z,2.57
2023-02-27T17:46:24.430Z,2.50
2023-02-27T17:48:51.802Z,2.30
2023-02-27T17:51:19.510Z,2.60
2023-02-27T17:53:46.713Z,2.70
2023-02-27T17:56:13.949Z,3.43
2023-02-27T17:58:41.637Z,2.80
2023-02-27T18:01:11.423Z,2.80
2023-02-27T18:03:39.009Z,3.10
2023-02-27T18:06:06.696Z,2.47
2023-02-27T18:08:34.535Z,2.93
2023-02-27T18:11:02.120Z,3.30
2023-02-27T18:13:29.604Z,2.80
2023-02-27T18:15:57.149Z,2.93
2023-02-27T18:18:24.564Z,2.97
2023-02-27T18:21:05.918Z,3.00
2023-02-27T18:23:33.209Z,2.90
2023-02-27T18:26:00.440Z,3.40
2023-02-27T18:28:28.123Z,3.27
2023-02-27T18:30:55.398Z,2.47
2023-02-27T18:33:23.078Z,3.40
2023-02-27T18:35:50.888Z,3.20
2023-02-27T18:38:18.249Z,3.33
2023-02-27T18:40:45.448Z,3.40
2023-02-27T18:43:13.861Z,3.20
2023-02-27T18:45:41.663Z,7.43
2023-02-27T18:48:08.927Z,7.80
2023-02-27T18:50:36.128Z,5.07
2023-02-27T18:53:03.509Z,5.57
2023-02-27T18:55:30.826Z,4.40
2023-02-27T18:57:58.044Z,4.33
2023-02-27T19:00:25.294Z,4.00
2023-02-27T19:02:52.807Z,4.20
2023-02-27T19:05:19.700Z,4.10
2023-02-27T19:07:46.574Z,4.33
2023-02-27T19:10:14.981Z,4.20
2023-02-27T19:12:42.811Z,4.47
2023-02-27T19:15:10.959Z,5.30
2023-02-27T19:17:38.307Z,5.07
2023-02-27T19:20:06.875Z,4.50
2023-02-27T19:22:35.192Z,4.60
2023-02-27T19:25:02.106Z,4.47
2023-02-27T19:27:29.340Z,4.97
2023-02-27T19:29:56.160Z,4.97
2023-02-27T19:32:23.379Z,4.53
2023-02-27T19:34:50.209Z,5.00
2023-02-27T19:37:17.466Z,6.50
2023-02-27T19:39:44.679Z,5.70
2023-02-27T19:42:12.041Z,4.97
2023-02-27T19:44:40.734Z,5.50
2023-02-27T19:47:08.090Z,5.67
2023-02-27T19:49:35.360Z,6.10
2023-02-27T19:52:03.061Z,5.33
2023-02-27T19:54:30.710Z,6.17
2023-02-27T19:56:57.989Z,5.20
2023-02-27T19:59:25.459Z,5.93
2023-02-27T20:01:53.085Z,5.83
2023-02-27T20:04:20.563Z,5.20
2023-02-27T20:06:49.885Z,5.60
2023-02-27T20:09:18.128Z,5.17
2023-02-27T20:11:46.197Z,5.43
2023-02-27T20:14:14.500Z,5.00
2023-02-27T20:16:42.323Z,5.90
2023-02-27T20:19:11.338Z,5.13
2023-02-27T20:21:38.526Z,5.83
2023-02-27T20:24:05.978Z,5.67
2023-02-27T20:26:34.723Z,5.53
2023-02-27T20:29:06.829Z,5.33
2023-02-27T20:31:35.576Z,5.73
2023-02-27T20:34:05.981Z,5.60
2023-02-27T20:36:33.795Z,6.03
2023-02-27T20:39:01.265Z,6.03
2023-02-27T20:41:29.839Z,5.47
2023-02-27T20:43:57.314Z,5.43
2023-02-27T20:46:27.909Z,6.13
2023-02-27T20:49:00.217Z,5.83
2023-02-27T20:51:29.211Z,7.40
2023-02-27T20:53:58.222Z,5.97
2023-02-27T20:56:30.271Z,6.00
2023-02-27T20:58:59.677Z,5.93
2023-02-27T21:01:27.475Z,6.33
2023-02-27T21:03:57.738Z,6.20
2023-02-27T21:06:25.761Z,6.03
2023-02-27T21:08:55.232Z,6.00
2023-02-27T21:11:29.153Z,6.50
2023-02-27T21:13:58.171Z,6.07
2023-02-27T21:16:25.873Z,6.30
2023-02-27T21:18:53.613Z,5.93
2023-02-27T21:21:23.017Z,5.97
2023-02-27T21:23:50.620Z,5.70
2023-02-27T21:26:29.484Z,5.47
2023-02-27T21:29:01.508Z,5.60
2023-02-27T21:31:31.240Z,9.20
2023-02-27T21:34:00.037Z,7.20
2023-02-27T21:36:28.334Z,6.87
2023-02-27T21:38:56.778Z,6.23
2023-02-27T21:41:24.045Z,5.90
2023-02-27T21:43:51.200Z,5.70
2023-02-27T21:46:20.803Z,5.93
2023-02-27T21:48:48.187Z,7.83
2023-02-27T21:51:17.179Z,7.87
2023-02-27T21:53:46.711Z,6.80
2023-02-27T21:56:14.432Z,6.30
2023-02-27T21:58:42.100Z,6.00
2023-02-27T22:01:15.529Z,6.07
2023-02-27T22:03:43.771Z,6.73
2023-02-27T22:06:11.808Z,7.07
2023-02-27T22:08:39.272Z,6.33
2023-02-27T22:11:06.805Z,6.23
2023-02-27T22:13:34.515Z,8.00
2023-02-27T22:16:09.332Z,8.40
2023-02-27T22:18:38.109Z,7.17
2023-02-27T22:21:08.886Z,6.37
2023-02-27T22:23:36.218Z,7.33
2023-02-27T22:26:04.828Z,8.53
2023-02-27T22:28:33.043Z,9.30
2023-02-27T22:31:07.602Z,7.53
2023-02-27T22:33:36.339Z,6.50
2023-02-27T22:36:07.634Z,6.97
2023-02-27T22:38:35.035Z,5.90
2023-02-27T22:41:09.664Z,7.67
2023-02-27T22:43:38.532Z,7.07
2023-02-27T22:46:06.553Z,6.97
2023-02-27T22:48:34.075Z,7.10
2023-02-27T22:51:08.839Z,7.73
2023-02-27T22:53:39.823Z,7.07
2023-02-27T22:56:08.211Z,8.80
2023-02-27T22:58:37.264Z,8.43
2023-02-27T23:01:11.399Z,7.77
2023-02-27T23:03:38.931Z,6.73
2023-02-27T23:06:07.126Z,7.20
2023-02-27T23:08:34.508Z,7.13
2023-02-27T23:11:02.211Z,7.47
2023-02-27T23:13:30.912Z,6.90
2023-02-27T23:15:58.334Z,7.40
2023-02-27T23:18:25.553Z,7.37
2023-02-27T23:20:52.727Z,6.77
2023-02-27T23:23:19.955Z,7.00
2023-02-27T23:25:47.180Z,5.77
2023-02-27T23:28:14.326Z,6.70
2023-02-27T23:30:41.450Z,6.20
2023-02-27T23:33:08.622Z,6.67
2023-02-27T23:35:36.089Z,6.30
2023-02-27T23:38:03.406Z,6.50
2023-02-27T23:40:30.769Z,7.23
2023-02-27T23:43:16.519Z,6.97
2023-02-27T23:45:43.810Z,6.70
2023-02-27T23:48:11.070Z,6.90
2023-02-27T23:50:39.932Z,7.03
2023-02-27T23:53:07.828Z,6.60
2023-02-27T23:55:36.236Z,6.77
2023-02-27T23:58:04.998Z,6.30
